Joliet, Texas
Current Conditions -  °F | °C
As of 7:35 AM on Sunday 23 Nov 2014 (Local Time) from KT20 Reporting Station
Clear Clear  
Wind Chill: 55°   Ceiling: Unl
Heat Index: 55°   Visibility: 10mi
Dew Point: 55°   Wind: 3mph
Humidity: 99%   Direction: 260°W
Pressure: 29.69"   Gusts: NA
Location:  29.6952°N, 97.6509°W
Report Text: KT20 231335Z AUTO 26003KT 10SM CLR 13/13 A2969 RMK AO2 T01270126
Loading
Personal Weather Stations






























Interactive Weather Map New forecast layout! Learn more

10-Day Weather Forecast

Advertisements
Track Severe Weather on mobile